Time;durP1;ratioP1;P1;durP2;ratioP2;P2;SDS_P1;SDS_P2;PMS_P1;PMS_P2;Temp;Humidity;BMP_temperature;BMP_pressure;BME280_temperature;BME280_humidity;BME280_pressure;Samples;Min_cycle;Max_cycle;Signal;HPM_P1;HPM_P2
2022/03/02 00:00:09;;;;;;;21.20;13.77;;;;;;;2.00;nan;-23871.59;4993806;28;20266;-74
2022/03/02 00:02:35;;;;;;;27.97;15.50;;;;;;;1.97;nan;-23870.75;4978668;28;20304;-73
2022/03/02 00:05:00;;;;;;;26.47;15.90;;;;;;;2.14;nan;-23875.59;4988115;28;20204;-75
2022/03/02 00:07:26;;;;;;;25.70;15.83;;;;;;;1.99;nan;-23871.31;4998284;28;20175;-74
2022/03/02 00:09:52;;;;;;;27.17;15.17;;;;;;;2.11;nan;-23874.75;4996991;28;20655;-72
2022/03/02 00:12:18;;;;;;;32.60;16.83;;;;;;;2.43;nan;-23883.75;4998479;28;20168;-75
2022/03/02 00:14:43;;;;;;;29.47;13.13;;;;;;;2.05;nan;-23873.03;5009473;28;20234;-75
2022/03/02 00:17:09;;;;;;;18.63;11.57;;;;;;;1.56;nan;-23859.31;5017658;28;20192;-77
2022/03/02 00:19:36;;;;;;;20.37;12.77;;;;;;;1.99;nan;-23871.31;5016774;28;20704;-74
2022/03/02 00:22:01;;;;;;;19.73;12.07;;;;;;;1.92;nan;-23869.31;5017731;28;20271;-73
2022/03/02 00:24:27;;;;;;;20.40;12.23;;;;;;;1.41;nan;-23855.03;5017373;28;20267;-76
2022/03/02 00:26:52;;;;;;;21.27;12.40;;;;;;;1.40;nan;-23854.75;5017578;28;20172;-73
2022/03/02 00:29:17;;;;;;;22.07;13.10;;;;;;;1.36;nan;-23853.44;5017337;28;20176;-74
2022/03/02 00:31:44;;;;;;;20.63;12.93;;;;;;;1.68;nan;-23862.75;5012609;28;20200;-72
2022/03/02 00:34:10;;;;;;;21.67;12.73;;;;;;;1.04;nan;-23844.44;4994157;28;20195;-73
2022/03/02 00:36:35;;;;;;;21.83;13.53;;;;;;;1.48;nan;-23856.88;4986070;28;20248;-72
2022/03/02 00:39:00;;;;;;;23.57;13.23;;;;;;;1.53;nan;-23858.44;4974975;28;20212;-73
2022/03/02 00:41:26;;;;;;;21.40;13.20;;;;;;;1.18;nan;-23848.44;4988160;28;20722;-73
2022/03/02 00:43:51;;;;;;;23.47;13.60;;;;;;;1.21;nan;-23849.44;4994483;28;20175;-74
2022/03/02 00:46:17;;;;;;;21.97;13.77;;;;;;;1.54;nan;-23858.75;4992122;28;20257;-75
2022/03/02 00:48:43;;;;;;;22.40;13.83;;;;;;;1.57;nan;-23859.59;4994134;28;20271;-73
2022/03/02 00:51:09;;;;;;;23.00;14.10;;;;;;;1.43;nan;-23855.59;4994763;28;20673;-74
2022/03/02 00:53:35;;;;;;;24.23;14.10;;;;;;;0.86;nan;-23839.59;4995123;28;20173;-73
2022/03/02 00:56:00;;;;;;;20.33;13.27;;;;;;;0.83;nan;-23838.72;4994933;28;20564;-72
2022/03/02 00:58:25;;;;;;;26.60;14.00;;;;;;;1.31;nan;-23852.31;4994724;28;20758;-73
2022/03/02 01:00:51;;;;;;;23.47;13.53;;;;;;;0.88;nan;-23840.00;4994695;28;20194;-73
2022/03/02 01:03:16;;;;;;;22.60;13.80;;;;;;;1.05;nan;-23844.72;4993027;28;20685;-73
2022/03/02 01:05:42;;;;;;;20.10;12.97;;;;;;;0.95;nan;-23842.00;4994915;28;20563;-73
2022/03/02 01:08:07;;;;;;;22.40;13.17;;;;;;;1.02;nan;-23843.88;4994428;28;20316;-72
2022/03/02 01:10:33;;;;;;;21.13;13.07;;;;;;;0.80;nan;-23837.72;4993899;28;20203;-73
2022/03/02 01:12:58;;;;;;;20.80;13.50;;;;;;;1.22;nan;-23849.59;4992722;28;20191;-72
2022/03/02 01:15:24;;;;;;;20.97;13.33;;;;;;;0.75;nan;-23836.44;4973559;28;20174;-72
2022/03/02 01:17:49;;;;;;;23.17;13.37;;;;;;;1.04;nan;-23844.44;4981200;28;20272;-74
2022/03/02 01:20:15;;;;;;;21.83;13.90;;;;;;;1.01;nan;-23843.72;4994263;28;20284;-75
2022/03/02 01:22:42;;;;;;;19.80;13.17;;;;;;;0.74;nan;-23836.16;4994703;28;20223;-73
2022/03/02 01:25:09;;;;;;;21.50;13.57;;;;;;;0.57;nan;-23831.28;4994210;28;20555;-75
2022/03/02 01:27:34;;;;;;;25.23;14.63;;;;;;;0.56;nan;-23831.00;4994234;28;20177;-73
2022/03/02 01:30:00;;;;;;;20.57;14.00;;;;;;;1.02;nan;-23844.00;4994106;28;20558;-74
2022/03/02 01:32:25;;;;;;;23.57;14.13;;;;;;;0.73;nan;-23835.72;4867988;28;21457;-74
2022/03/02 01:34:51;;;;;;;23.67;14.87;;;;;;;0.61;nan;-23832.44;4459539;28;20941;-73
2022/03/02 01:37:16;;;;;;;27.67;14.03;;;;;;;0.82;nan;-23838.44;4768311;28;20192;-73
2022/03/02 01:39:42;;;;;;;21.27;13.90;;;;;;;0.56;nan;-23831.00;4994154;28;20647;-75
2022/03/02 01:42:08;;;;;;;21.60;13.43;;;;;;;0.73;nan;-23835.72;4992468;28;20640;-74
2022/03/02 01:44:35;;;;;;;20.17;13.13;;;;;;;0.65;nan;-23833.56;4993283;28;20192;-75
2022/03/02 01:47:01;;;;;;;21.70;13.30;;;;;;;0.24;nan;-23821.84;4992811;28;20218;-73
2022/03/02 01:49:26;;;;;;;22.97;13.60;;;;;;;0.54;nan;-23830.44;4988410;28;20177;-75
2022/03/02 01:51:52;;;;;;;21.73;14.17;;;;;;;0.92;nan;-23841.16;4974697;28;20185;-73
2022/03/02 01:54:18;;;;;;;23.03;12.60;;;;;;;-0.64;nan;-23797.06;4983845;28;20199;-74
2022/03/02 01:56:44;;;;;;;24.03;13.17;;;;;;;-0.19;nan;-23809.81;4993555;28;20180;-72
2022/03/02 01:59:10;;;;;;;24.87;13.73;;;;;;;0.51;nan;-23829.56;4993253;28;20196;-74
2022/03/02 02:01:36;;;;;;;21.43;13.57;;;;;;;0.39;nan;-23826.28;4992786;28;20222;-74
2022/03/02 02:04:02;;;;;;;24.47;14.37;;;;;;;0.09;nan;-23817.53;4993671;28;20179;-75
2022/03/02 02:06:29;;;;;;;25.43;15.03;;;;;;;0.53;nan;-23830.13;4993616;28;20620;-73
2022/03/02 02:08:54;;;;;;;25.10;15.80;;;;;;;-0.02;nan;-23814.53;4993778;28;20157;-75
2022/03/02 02:11:20;;;;;;;24.37;14.37;;;;;;;0.00;nan;-23815.25;4993162;28;20227;-72
2022/03/02 02:13:45;;;;;;;30.90;15.97;;;;;;;0.43;nan;-23827.41;4993178;28;20187;-74
2022/03/02 02:16:13;;;;;;;26.33;16.17;;;;;;;0.24;nan;-23821.84;4993068;28;20548;-74
2022/03/02 02:18:39;;;;;;;26.83;15.43;;;;;;;0.39;nan;-23826.13;4993464;28;20724;-72
2022/03/02 02:21:07;;;;;;;26.47;15.20;;;;;;;0.03;nan;-23815.97;4991195;28;20191;-73
2022/03/02 02:23:33;;;;;;;28.90;15.90;;;;;;;-0.12;nan;-23811.81;4993105;28;20216;-73
2022/03/02 02:25:59;;;;;;;27.37;15.30;;;;;;;0.05;nan;-23816.41;4983229;28;20177;-76
2022/03/02 02:28:27;;;;;;;27.80;16.37;;;;;;;-0.52;nan;-23800.34;4973420;28;20666;-74
2022/03/02 02:30:56;;;;;;;27.97;16.70;;;;;;;0.26;nan;-23822.41;4986586;28;20191;-75
2022/03/02 02:33:23;;;;;;;27.73;16.07;;;;;;;0.27;nan;-23822.84;4992938;28;20190;-75
2022/03/02 02:35:49;;;;;;;26.77;16.43;;;;;;;0.38;nan;-23826.00;4992797;28;20199;-73
2022/03/02 02:38:15;;;;;;;26.47;16.20;;;;;;;-0.08;nan;-23812.97;4992862;28;20204;-73
2022/03/02 02:40:41;;;;;;;26.80;14.93;;;;;;;-0.11;nan;-23811.97;4993032;28;20182;-74
2022/03/02 02:43:07;;;;;;;26.40;15.63;;;;;;;0.18;nan;-23820.13;4992695;28;20180;-74
2022/03/02 02:45:33;;;;;;;25.80;15.23;;;;;;;-0.08;nan;-23812.97;4992830;28;20578;-74
2022/03/02 02:47:58;;;;;;;29.13;17.57;;;;;;;-0.23;nan;-23808.53;4992723;28;20222;-73
2022/03/02 02:50:27;;;;;;;27.43;16.07;;;;;;;0.48;nan;-23828.56;5023947;28;20211;-74
2022/03/02 02:52:54;;;;;;;29.43;16.90;;;;;;;-0.25;nan;-23808.09;4992297;28;20179;-72
2022/03/02 02:55:21;;;;;;;26.93;15.30;;;;;;;0.06;nan;-23816.81;4992265;28;20176;-73
2022/03/02 02:57:47;;;;;;;28.50;15.90;;;;;;;-0.45;nan;-23802.34;4990956;28;20253;-75
2022/03/02 03:00:16;;;;;;;25.77;16.17;;;;;;;-0.20;nan;-23809.53;4992126;28;20194;-74
2022/03/02 03:02:44;;;;;;;31.67;18.80;;;;;;;0.17;nan;-23819.84;4977324;28;20228;-74
2022/03/02 03:05:14;;;;;;;30.27;17.50;;;;;;;0.29;nan;-23823.28;4973487;28;20647;-73
2022/03/02 03:07:41;;;;;;;28.30;17.57;;;;;;;-0.08;nan;-23812.81;4992379;28;20175;-75
2022/03/02 03:10:08;;;;;;;25.20;15.57;;;;;;;0.36;nan;-23825.41;4992428;28;20179;-74
2022/03/02 03:12:34;;;;;;;29.03;16.17;;;;;;;0.52;nan;-23829.72;4991922;28;20714;-75
2022/03/02 03:15:00;;;;;;;23.40;14.50;;;;;;;0.47;nan;-23828.28;4993021;28;20577;-73
2022/03/02 03:17:26;;;;;;;28.53;18.47;;;;;;;0.50;nan;-23829.28;4992351;28;20592;-73
2022/03/02 03:19:51;;;;;;;30.03;16.87;;;;;;;0.05;nan;-23816.41;4992205;28;20260;-74
2022/03/02 03:22:17;;;;;;;33.23;20.77;;;;;;;0.06;nan;-23816.81;4992261;28;20180;-76
2022/03/02 03:24:42;;;;;;;31.37;17.30;;;;;;;0.17;nan;-23819.84;4992195;28;20598;-75
2022/03/02 03:27:08;;;;;;;24.63;15.33;;;;;;;0.04;nan;-23816.25;4991767;28;20632;-72
2022/03/02 03:29:33;;;;;;;27.73;16.33;;;;;;;-0.52;nan;-23800.50;4992490;28;20167;-74
2022/03/02 03:31:59;;;;;;;29.80;16.47;;;;;;;-0.06;nan;-23813.53;4992271;28;20348;-75
2022/03/02 03:34:24;;;;;;;28.83;17.10;;;;;;;-0.04;nan;-23813.97;4991221;28;20214;-73
2022/03/02 03:36:52;;;;;;;28.40;16.27;;;;;;;-0.51;nan;-23800.63;4992006;28;20266;-73
2022/03/02 03:39:18;;;;;;;30.20;17.13;;;;;;;-0.12;nan;-23811.81;4972586;28;20710;-73
2022/03/02 03:41:44;;;;;;;33.10;17.70;;;;;;;-0.32;nan;-23806.09;4977449;28;20274;-73
2022/03/02 03:44:10;;;;;;;27.47;16.93;;;;;;;-0.49;nan;-23801.34;4992056;28;20208;-73
2022/03/02 03:46:35;;;;;;;30.97;17.23;;;;;;;-0.16;nan;-23810.66;5005987;28;20236;-74
2022/03/02 03:49:00;;;;;;;33.77;17.27;;;;;;;-0.65;nan;-23796.63;5011469;28;20183;-72
2022/03/02 03:51:26;;;;;;;27.10;17.23;;;;;;;-0.17;nan;-23810.38;5011116;28;20676;-75
2022/03/02 03:53:51;;;;;;;34.43;16.57;;;;;;;-0.30;nan;-23806.66;5010813;28;20224;-73
2022/03/02 03:56:17;;;;;;;27.93;16.33;;;;;;;0.08;nan;-23817.25;5010680;28;20178;-73
2022/03/02 03:58:42;;;;;;;29.93;17.10;;;;;;;-0.13;nan;-23811.38;5011100;28;20214;-73
2022/03/02 04:01:07;;;;;;;30.23;19.23;;;;;;;-0.72;nan;-23794.75;5009785;28;20186;-73
2022/03/02 04:03:35;;;;;;;31.23;17.67;;;;;;;-0.22;nan;-23808.81;5011397;28;20596;-74
2022/03/02 04:06:00;;;;;;;28.27;17.33;;;;;;;-0.14;nan;-23811.09;5011068;28;20205;-76
2022/03/02 04:08:25;;;;;;;32.27;16.60;;;;;;;-0.16;nan;-23810.53;5009623;28;20609;-73
2022/03/02 04:10:51;;;;;;;35.70;22.97;;;;;;;-0.25;nan;-23807.94;5003755;28;20200;-76
2022/03/02 04:13:16;;;;;;;31.07;18.63;;;;;;;-0.36;nan;-23804.78;4995094;28;20186;-74
2022/03/02 04:15:42;;;;;;;28.43;19.23;;;;;;;-0.55;nan;-23799.50;4980941;28;20186;-74
2022/03/02 04:18:08;;;;;;;27.67;16.50;;;;;;;-1.01;nan;-23786.44;4974149;28;20203;-73
2022/03/02 04:20:34;;;;;;;30.23;16.43;;;;;;;-0.81;nan;-23792.03;4995004;28;20630;-73
2022/03/02 04:23:00;;;;;;;29.40;17.20;;;;;;;-1.02;nan;-23786.16;4991556;28;20690;-73
2022/03/02 04:25:25;;;;;;;27.83;16.87;;;;;;;-0.68;nan;-23795.75;4987896;28;20640;-76
2022/03/02 04:27:51;;;;;;;27.63;16.97;;;;;;;-0.63;nan;-23797.34;4988005;28;20652;-73
2022/03/02 04:30:17;;;;;;;29.80;17.07;;;;;;;-0.70;nan;-23795.19;4988214;28;20271;-72
2022/03/02 04:32:43;;;;;;;27.80;17.47;;;;;;;-0.66;nan;-23796.47;4987132;28;20331;-74
2022/03/02 04:35:10;;;;;;;29.03;17.17;;;;;;;-0.76;nan;-23793.47;4986940;28;20604;-72
2022/03/02 04:37:36;;;;;;;31.97;17.37;;;;;;;-0.88;nan;-23790.31;4987665;28;20676;-73
2022/03/02 04:40:04;;;;;;;26.13;16.07;;;;;;;-0.86;nan;-23790.75;4987111;28;20318;-76
2022/03/02 04:42:29;;;;;;;29.87;16.27;;;;;;;-0.69;nan;-23795.47;4986777;28;20186;-73
2022/03/02 04:44:55;;;;;;;26.73;16.37;;;;;;;-0.79;nan;-23792.63;4986930;28;20529;-74
2022/03/02 04:47:20;;;;;;;28.37;16.20;;;;;;;-0.79;nan;-23792.63;4987302;28;20211;-79
2022/03/02 04:49:46;;;;;;;29.13;16.77;;;;;;;-0.73;nan;-23794.34;4986235;28;20193;-77
2022/03/02 04:52:11;;;;;;;30.80;16.77;;;;;;;-0.78;nan;-23793.03;4986676;28;20232;-75
2022/03/02 04:57:21;;;;;;;26.97;16.83;;;;;;;-0.80;nan;-23792.31;4986426;28;20211;-76
2022/03/02 04:59:46;;;;;;;28.53;16.10;;;;;;;-0.92;nan;-23789.16;4985886;28;20662;-77
2022/03/02 05:02:12;;;;;;;26.33;16.20;;;;;;;-0.85;nan;-23790.91;4984550;28;20286;-77
2022/03/02 05:04:37;;;;;;;29.77;17.93;;;;;;;-0.95;nan;-23788.31;4985461;28;20204;-75
2022/03/02 05:07:03;;;;;;;30.93;17.30;;;;;;;-1.24;nan;-23780.00;4985800;28;20236;-76
2022/03/02 05:09:28;;;;;;;28.93;16.97;;;;;;;-0.98;nan;-23787.44;4983892;28;20241;-77
2022/03/02 05:11:54;;;;;;;30.23;18.13;;;;;;;-0.94;nan;-23788.47;4985738;28;20174;-76
2022/03/02 05:14:20;;;;;;;31.70;18.60;;;;;;;-0.88;nan;-23790.31;4978303;28;20189;-77
2022/03/02 05:16:45;;;;;;;32.63;18.03;;;;;;;-0.39;nan;-23804.06;4987497;28;20201;-74
2022/03/02 05:19:11;;;;;;;30.17;17.67;;;;;;;-0.57;nan;-23798.91;4986531;28;20206;-72
2022/03/02 05:21:36;;;;;;;31.67;19.73;;;;;;;-0.68;nan;-23795.75;4992299;28;20220;-75
2022/03/02 05:24:02;;;;;;;35.77;19.67;;;;;;;-0.18;nan;-23810.09;4993654;28;20323;-72
2022/03/02 05:26:28;;;;;;;36.27;21.80;;;;;;;-0.21;nan;-23809.09;4991491;28;20178;-72
2022/03/02 05:28:53;;;;;;;36.17;23.03;;;;;;;-0.06;nan;-23813.53;4990840;28;20296;-71
2022/03/02 05:31:20;;;;;;;35.30;20.80;;;;;;;-0.05;nan;-23813.81;4992454;28;20198;-73
2022/03/02 05:33:46;;;;;;;33.80;19.87;;;;;;;-0.51;nan;-23800.63;4992858;28;20585;-72
2022/03/02 05:36:11;;;;;;;30.47;18.77;;;;;;;0.05;nan;-23816.41;4992278;28;20188;-75
2022/03/02 05:38:37;;;;;;;29.33;18.77;;;;;;;-0.25;nan;-23808.09;4991420;28;20232;-72
2022/03/02 05:41:02;;;;;;;28.33;16.97;;;;;;;0.10;nan;-23817.81;4987963;28;20183;-73
2022/03/02 05:43:28;;;;;;;30.77;18.50;;;;;;;0.20;nan;-23820.69;4992221;28;20281;-73
2022/03/02 05:45:53;;;;;;;30.57;18.33;;;;;;;0.32;nan;-23824.13;4991903;28;20280;-75
2022/03/02 05:48:19;;;;;;;33.40;18.47;;;;;;;-0.14;nan;-23811.25;4992987;28;20191;-72
2022/03/02 05:50:44;;;;;;;35.97;21.37;;;;;;;-0.06;nan;-23813.38;5006032;28;20192;-73
2022/03/02 05:53:09;;;;;;;37.17;19.90;;;;;;;0.39;nan;-23826.28;4997349;28;20189;-71
2022/03/02 05:55:35;;;;;;;35.87;19.37;;;;;;;0.61;nan;-23832.28;4986218;28;20184;-73
2022/03/02 05:58:00;;;;;;;33.63;18.43;;;;;;;0.47;nan;-23828.28;4992512;28;20674;-73
2022/03/02 06:00:26;;;;;;;41.03;19.93;;;;;;;0.35;nan;-23825.00;4986167;28;20707;-75
2022/03/02 06:02:51;;;;;;;38.53;21.23;;;;;;;-0.33;nan;-23805.81;5000691;28;20226;-75
2022/03/02 06:05:17;;;;;;;38.07;21.20;;;;;;;-0.08;nan;-23812.97;4991397;28;20193;-74
2022/03/02 06:07:42;;;;;;;39.80;20.93;;;;;;;0.64;nan;-23833.28;4992847;28;20721;-77
2022/03/02 06:10:09;;;;;;;36.40;19.60;;;;;;;0.40;nan;-23826.41;4991255;28;20540;-80
2022/03/02 06:12:35;;;;;;;34.57;19.73;;;;;;;0.95;nan;-23842.00;4992568;28;20195;-74
2022/03/02 06:15:00;;;;;;;34.57;20.20;;;;;;;0.36;nan;-23825.41;4991886;28;20180;-75
2022/03/02 06:17:26;;;;;;;34.47;19.13;;;;;;;0.99;nan;-23843.00;4992528;28;20256;-75
2022/03/02 06:19:52;;;;;;;41.30;21.97;;;;;;;1.11;nan;-23846.44;4980237;28;20286;-73
2022/03/02 06:22:23;;;;;;;39.03;21.27;;;;;;;0.98;nan;-23842.88;4992253;28;20207;-72
2022/03/02 06:24:51;;;;;;;37.60;20.57;;;;;;;1.43;nan;-23855.47;4984557;28;20192;-73
2022/03/02 06:27:20;;;;;;;37.53;22.30;;;;;;;1.41;nan;-23855.03;4992181;28;20287;-75
2022/03/02 06:29:46;;;;;;;40.43;22.40;;;;;;;1.58;nan;-23859.75;4985860;28;20207;-72
2022/03/02 06:32:11;;;;;;;43.13;21.73;;;;;;;1.50;nan;-23857.59;4990983;28;20645;-75
2022/03/02 06:34:37;;;;;;;38.50;21.77;;;;;;;1.88;nan;-23868.31;4991327;28;20186;-75
2022/03/02 06:37:02;;;;;;;39.77;21.30;;;;;;;1.92;nan;-23869.31;4992160;28;20186;-74
2022/03/02 06:39:28;;;;;;;38.07;22.07;;;;;;;1.85;nan;-23867.31;4985299;28;20284;-76
2022/03/02 06:42:11;;;;;;;37.60;22.80;;;;;;;2.04;nan;-23872.88;4991994;28;20523;-75
2022/03/02 06:44:36;;;;;;;38.97;22.60;;;;;;;2.08;nan;-23874.03;4985412;28;20314;-75
2022/03/02 06:47:10;;;;;;;40.63;23.23;;;;;;;1.84;nan;-23867.03;4991679;28;20263;-74
2022/03/02 06:49:38;;;;;;;40.23;21.77;;;;;;;2.00;nan;-23871.75;4985302;28;20722;-73
2022/03/02 06:52:06;;;;;;;38.70;22.63;;;;;;;2.07;nan;-23873.59;4990851;28;20246;-73
2022/03/02 06:54:33;;;;;;;37.90;23.20;;;;;;;2.33;nan;-23880.88;4991275;28;20244;-72
2022/03/02 06:57:00;;;;;;;40.17;23.27;;;;;;;2.05;nan;-23873.03;4990276;28;20243;-76
2022/03/02 06:59:38;;;;;;;45.77;24.33;;;;;;;2.08;nan;-23874.03;4984007;28;20622;-73
2022/03/02 07:02:05;;;;;;;37.43;23.17;;;;;;;2.63;nan;-23889.44;4990669;28;20703;-72
2022/03/02 07:04:35;;;;;;;39.03;23.90;;;;;;;2.61;nan;-23889.03;4976405;28;20200;-75
2022/03/02 07:07:03;;;;;;;34.37;20.23;;;;;;;3.28;nan;-23907.72;4987816;28;20220;-76
2022/03/02 07:09:30;;;;;;;34.60;20.77;;;;;;;3.28;nan;-23907.84;4987781;28;20187;-72
2022/03/02 07:11:58;;;;;;;33.20;20.50;;;;;;;3.15;nan;-23904.13;4990332;28;20284;-75
2022/03/02 07:14:25;;;;;;;33.83;20.20;;;;;;;4.09;nan;-23930.66;4985635;28;20656;-75
2022/03/02 07:16:51;;;;;;;26.37;14.17;;;;;;;4.04;nan;-23929.22;4990263;28;20173;-72
2022/03/02 07:19:17;;;;;;;25.37;10.93;;;;;;;4.27;nan;-23935.63;4985716;28;20263;-71
2022/03/02 07:21:45;;;;;;;20.80;10.00;;;;;;;4.51;nan;-23942.47;4991920;28;20192;-74
2022/03/02 07:24:18;;;;;;;18.67;9.83;;;;;;;4.00;nan;-23928.09;4985714;28;20276;-74
2022/03/02 07:26:55;;;;;;;14.20;9.70;;;;;;;4.71;nan;-23948.03;4991440;28;20184;-73
2022/03/02 07:29:23;;;;;;;12.47;8.97;;;;;;;4.87;nan;-23952.72;4986011;28;20177;-73
2022/03/02 07:31:51;;;;;;;18.70;9.50;;;;;;;4.61;nan;-23945.16;4991910;28;20267;-75
2022/03/02 07:34:17;;;;;;;12.83;8.43;;;;;;;4.31;nan;-23936.91;4985637;28;20267;-72
2022/03/02 07:36:44;;;;;;;15.80;9.63;;;;;;;4.66;nan;-23946.75;4990691;28;20180;-73
2022/03/02 07:39:10;;;;;;;14.63;8.57;;;;;;;4.07;nan;-23930.06;4985559;28;20205;-72
2022/03/02 07:41:37;;;;;;;12.10;8.80;;;;;;;4.09;nan;-23930.66;4991253;28;20208;-73
2022/03/02 07:44:04;;;;;;;14.27;9.57;;;;;;;4.87;nan;-23952.72;4995035;28;20181;-74
2022/03/02 07:46:30;;;;;;;13.73;9.33;;;;;;;4.42;nan;-23939.91;4995169;28;20211;-74
2022/03/02 07:48:56;;;;;;;14.67;9.40;;;;;;;5.19;nan;-23961.66;4991827;28;20185;-76
2022/03/02 07:51:23;;;;;;;15.13;10.20;;;;;;;5.51;nan;-23970.47;4993517;28;20180;-74
2022/03/02 07:53:51;;;;;;;15.63;9.17;;;;;;;5.13;nan;-23959.97;4992055;28;20177;-73
2022/03/02 07:56:19;;;;;;;12.67;8.83;;;;;;;4.77;nan;-23949.72;4992067;28;20185;-74
2022/03/02 07:58:45;;;;;;;15.90;9.23;;;;;;;5.45;nan;-23968.78;4993004;28;20637;-73
2022/03/02 08:01:18;;;;;;;13.30;8.33;;;;;;;4.32;nan;-23937.19;4991447;28;20719;-75
2022/03/02 08:03:44;;;;;;;12.30;8.47;;;;;;;5.33;nan;-23965.66;4978544;28;20178;-76
2022/03/02 08:06:10;;;;;;;11.63;8.67;;;;;;;5.30;nan;-23964.66;5007147;28;20232;-76
2022/03/02 08:08:36;;;;;;;14.07;8.60;;;;;;;5.41;nan;-23967.78;4992113;28;20188;-74
2022/03/02 08:11:03;;;;;;;16.57;8.90;;;;;;;5.94;nan;-23982.72;4988767;28;20323;-72
2022/03/02 08:13:34;;;;;;;11.77;8.07;;;;;;;5.97;nan;-23983.56;4994392;28;20668;-74
2022/03/02 08:16:00;;;;;;;13.03;8.33;;;;;;;6.08;nan;-23986.56;4990185;28;20192;-73
2022/03/02 08:18:27;;;;;;;10.87;7.90;;;;;;;5.95;nan;-23983.00;4994724;28;20200;-74
2022/03/02 08:20:55;;;;;;;11.90;8.87;;;;;;;6.22;nan;-23990.53;4988468;28;20192;-73
2022/03/02 08:23:23;;;;;;;15.80;8.50;;;;;;;6.44;nan;-23996.63;4995145;28;20191;-74
2022/03/02 08:25:52;;;;;;;10.57;7.60;;;;;;;5.73;nan;-23976.75;4988326;28;20181;-73
2022/03/02 08:28:20;;;;;;;16.90;8.70;;;;;;;6.01;nan;-23984.56;4995219;28;20188;-75
2022/03/02 08:30:48;;;;;;;10.83;8.00;;;;;;;6.03;nan;-23985.28;4988176;28;20188;-73
2022/03/02 08:33:19;;;;;;;16.03;8.57;;;;;;;6.23;nan;-23990.81;4994592;28;20188;-72
2022/03/02 08:35:49;;;;;;;11.63;8.93;;;;;;;5.86;nan;-23980.44;4987952;28;20203;-73
2022/03/02 08:38:15;;;;;;;11.83;7.70;;;;;;;6.39;nan;-23995.22;4994473;28;20197;-74
2022/03/02 08:40:42;;;;;;;11.07;7.87;;;;;;;6.56;nan;-24000.03;4987815;28;20184;-76
2022/03/02 08:43:07;;;;;;;9.87;7.43;;;;;;;6.61;nan;-24001.59;4994337;28;20185;-73
2022/03/02 08:45:33;;;;;;;10.50;8.00;;;;;;;7.06;nan;-24014.22;4987359;28;20189;-73
2022/03/02 08:48:04;;;;;;;10.93;8.17;;;;;;;6.43;nan;-23996.50;4993615;28;20176;-76
2022/03/02 08:50:30;;;;;;;10.27;7.67;;;;;;;6.87;nan;-24008.84;4993112;28;20271;-74
2022/03/02 08:52:57;;;;;;;11.67;8.20;;;;;;;7.27;nan;-24019.91;4994035;28;20669;-72
2022/03/02 08:55:30;;;;;;;12.23;7.70;;;;;;;6.57;nan;-24000.31;4979588;28;20644;-74
2022/03/02 08:57:58;;;;;;;12.67;7.43;;;;;;;7.33;nan;-24021.59;4990864;28;20815;-73
2022/03/02 09:00:24;;;;;;;10.63;7.57;;;;;;;7.52;nan;-24027.13;4994444;28;20181;-74
2022/03/02 09:02:52;;;;;;;11.57;7.20;;;;;;;7.14;nan;-24016.34;4994238;28;20230;-74
2022/03/02 09:05:18;;;;;;;10.07;7.53;;;;;;;7.38;nan;-24023.00;4978180;28;20313;-77
2022/03/02 09:07:45;;;;;;;11.63;7.67;;;;;;;7.79;nan;-24034.50;4975156;28;20219;-76
2022/03/02 09:10:11;;;;;;;9.73;6.67;;;;;;;7.36;nan;-24022.44;4974874;28;20182;-75
2022/03/02 09:12:38;;;;;;;7.83;5.93;;;;;;;7.17;nan;-24017.06;4973275;28;20272;-76
2022/03/02 09:15:04;;;;;;;7.40;6.07;;;;;;;6.62;nan;-24001.75;4974165;28;20186;-75
2022/03/02 09:17:31;;;;;;;12.43;6.63;;;;;;;6.36;nan;-23994.50;4974890;28;20559;-75
2022/03/02 09:19:57;;;;;;;8.40;6.67;;;;;;;6.52;nan;-23999.03;4974574;28;20223;-73
2022/03/02 09:22:24;;;;;;;7.43;5.70;;;;;;;6.47;nan;-23997.47;4974634;28;20169;-75
2022/03/02 09:24:50;;;;;;;6.57;5.33;;;;;;;6.63;nan;-24002.16;4974633;28;20672;-76
2022/03/02 09:27:18;;;;;;;9.87;5.90;;;;;;;6.18;nan;-23989.53;4990419;28;20192;-76
2022/03/02 09:29:46;;;;;;;7.07;5.47;;;;;;;6.38;nan;-23994.94;4990243;28;20190;-75
2022/03/02 09:32:13;;;;;;;5.83;5.10;;;;;;;6.94;nan;-24010.81;4974636;28;20232;-75
2022/03/02 09:34:43;;;;;;;7.43;5.37;;;;;;;6.70;nan;-24003.88;4983120;28;20181;-73
2022/03/02 09:37:09;;;;;;;11.27;5.70;;;;;;;7.47;nan;-24025.72;4993731;28;20164;-74
2022/03/02 09:39:35;;;;;;;6.63;5.37;;;;;;;7.45;nan;-24025.13;4994159;28;20201;-75
2022/03/02 09:42:09;;;;;;;5.93;5.27;;;;;;;7.92;nan;-24038.31;4993346;28;20548;-75
2022/03/02 09:44:41;;;;;;;6.80;5.33;;;;;;;7.91;nan;-24038.03;4993602;28;20179;-74
2022/03/02 09:47:09;;;;;;;8.03;5.60;;;;;;;8.06;nan;-24042.00;4993267;28;20171;-76
2022/03/02 09:49:36;;;;;;;11.17;6.10;;;;;;;8.25;nan;-24047.38;4993538;28;20169;-72
2022/03/02 09:52:07;;;;;;;7.40;5.83;;;;;;;8.36;nan;-24050.50;4993440;28;20188;-74
2022/03/02 09:54:38;;;;;;;6.63;5.50;;;;;;;9.26;nan;-24075.81;4993190;28;20188;-76
2022/03/02 09:57:06;;;;;;;7.93;5.87;;;;;;;9.14;nan;-24072.28;4992009;28;20690;-73
2022/03/02 09:59:39;;;;;;;7.70;6.07;;;;;;;8.51;nan;-24054.59;4992564;28;20211;-76
2022/03/02 10:02:07;;;;;;;7.97;6.40;;;;;;;8.57;nan;-24056.44;4992592;28;20231;-74
2022/03/02 10:04:35;;;;;;;11.67;6.67;;;;;;;8.37;nan;-24050.94;4992283;28;20264;-76
2022/03/02 10:10:01;;;;;;;7.27;5.97;;;;;;;8.24;nan;-24047.25;4992603;28;20196;-75
2022/03/02 10:12:30;;;;;;;14.70;5.73;;;;;;;8.17;nan;-24045.13;4991769;28;20175;-74
2022/03/02 10:14:55;;;;;;;9.23;5.73;;;;;;;7.34;nan;-24022.03;4991460;28;20255;-74
2022/03/02 10:17:21;;;;;;;9.40;6.03;;;;;;;7.96;nan;-24039.44;4992695;28;20227;-74
2022/03/02 10:20:02;;;;;;;8.20;6.53;;;;;;;7.63;nan;-24030.09;4993437;28;20287;-76
2022/03/02 10:22:39;;;;;;;9.37;6.10;;;;;;;7.77;nan;-24034.06;4992778;28;20227;-73
2022/03/02 10:25:16;;;;;;;7.93;5.80;;;;;;;7.92;nan;-24038.31;4992996;28;20619;-74
2022/03/02 10:28:05;;;;;;;9.80;6.10;;;;;;;7.70;nan;-24031.94;4991956;28;20182;-75
2022/03/02 10:30:40;;;;;;;7.30;5.90;;;;;;;8.17;nan;-24045.13;4976738;28;20199;-74
2022/03/02 10:33:21;;;;;;;8.97;5.80;;;;;;;7.93;nan;-24038.47;4995267;28;20172;-73
2022/03/02 10:36:04;;;;;;;7.43;5.80;;;;;;;8.09;nan;-24042.84;4985706;28;20246;-70
2022/03/02 10:38:35;;;;;;;9.10;5.80;;;;;;;8.41;nan;-24052.06;4991419;28;20312;-75
2022/03/02 10:41:00;;;;;;;7.97;5.53;;;;;;;7.91;nan;-24038.03;4991411;28;20236;-72
2022/03/02 10:43:39;;;;;;;8.53;5.80;;;;;;;7.77;nan;-24034.06;4991717;28;20675;-72
2022/03/02 10:46:07;;;;;;;10.00;5.47;;;;;;;8.48;nan;-24053.75;4988168;28;20240;-72
2022/03/02 10:48:46;;;;;;;8.90;6.17;;;;;;;8.48;nan;-24053.91;4972863;28;20189;-70
2022/03/02 10:51:14;;;;;;;8.27;5.50;;;;;;;8.51;nan;-24054.75;4984359;28;20536;-71
2022/03/02 10:53:40;;;;;;;7.43;4.80;;;;;;;8.67;nan;-24059.13;4992062;28;20165;-71
2022/03/02 10:56:08;;;;;;;6.87;5.53;;;;;;;8.09;nan;-24042.84;4992359;28;20229;-72
2022/03/02 10:58:37;;;;;;;6.30;5.20;;;;;;;8.87;nan;-24064.78;4990537;28;20227;-70
2022/03/02 11:01:03;;;;;;;8.57;5.93;;;;;;;8.83;nan;-24063.81;4991105;28;20207;-66
2022/03/02 11:03:36;;;;;;;6.57;5.30;;;;;;;8.57;nan;-24056.31;4990733;28;20258;-70
2022/03/02 11:06:04;;;;;;;6.97;5.23;;;;;;;8.16;nan;-24044.84;4992236;28;20262;-70
2022/03/02 11:08:30;;;;;;;9.50;5.20;;;;;;;7.64;nan;-24030.38;4985596;28;20212;-71
2022/03/02 11:10:56;;;;;;;7.10;5.60;;;;;;;8.17;nan;-24045.25;4991956;28;20628;-73
2022/03/02 11:13:23;;;;;;;8.27;5.63;;;;;;;8.66;nan;-24059.00;4985303;28;20185;-66
2022/03/02 11:15:53;;;;;;;5.93;5.23;;;;;;;8.77;nan;-24061.97;4991744;28;20259;-72
2022/03/02 11:18:36;;;;;;;9.00;5.63;;;;;;;8.28;nan;-24048.22;4984873;28;20270;-69
2022/03/02 11:21:04;;;;;;;9.67;5.83;;;;;;;8.83;nan;-24063.81;4991789;28;20684;-67
2022/03/02 11:23:42;;;;;;;7.53;5.10;;;;;;;8.21;nan;-24046.25;4985108;28;20191;-69
2022/03/02 11:26:14;;;;;;;9.30;5.60;;;;;;;8.49;nan;-24054.03;4990737;28;20227;-71
2022/03/02 11:28:45;;;;;;;9.17;5.53;;;;;;;8.15;nan;-24044.56;4991325;28;20212;-69
2022/03/02 11:31:10;;;;;;;8.93;5.80;;;;;;;7.95;nan;-24039.03;4983273;28;20188;-71
2022/03/02 11:33:36;;;;;;;7.77;5.67;;;;;;;8.62;nan;-24057.72;4984854;28;20189;-73
2022/03/02 11:36:14;;;;;;;7.27;5.67;;;;;;;9.14;nan;-24072.28;4990171;28;20196;-71
2022/03/02 11:38:42;;;;;;;10.43;5.70;;;;;;;8.75;nan;-24061.41;4984793;28;20207;-75
2022/03/02 11:41:11;;;;;;;8.17;6.27;;;;;;;8.66;nan;-24059.00;4995005;28;20260;-71